Time;durP1;ratioP1;P1;durP2;ratioP2;P2;SDS_P1;SDS_P2;PMS_P1;PMS_P2;Temp;Humidity;BMP_temperature;BMP_pressure;BME280_temperature;BME280_humidity;BME280_pressure;Samples;Min_cycle;Max_cycle;Signal;HPM_P1;HPM_P2
2021/09/03 00:00:39;;;;;;;14.55;9.75;;;;;;;12.96;64.57;100541.69;10388937;28;20050;-66
2021/09/03 00:05:41;;;;;;;11.10;7.18;;;;;;;12.96;65.00;100544.31;10389230;28;20482;-66
2021/09/03 00:10:43;;;;;;;8.95;7.03;;;;;;;13.12;64.63;100544.25;10388657;28;20061;-66
2021/09/03 00:15:45;;;;;;;12.20;7.60;;;;;;;13.12;64.51;100536.38;10388247;28;20064;-66
2021/09/03 00:20:46;;;;;;;12.25;7.90;;;;;;;13.13;64.34;100539.84;10388495;28;20462;-66
2021/09/03 00:25:48;;;;;;;14.02;8.20;;;;;;;13.03;64.37;100534.28;10388882;28;20049;-66
2021/09/03 00:30:50;;;;;;;12.40;7.80;;;;;;;13.04;64.41;100532.50;10387883;28;20061;-66
2021/09/03 00:35:52;;;;;;;10.73;7.70;;;;;;;13.06;64.32;100530.63;10387039;28;20136;-66
2021/09/03 00:40:53;;;;;;;11.40;7.32;;;;;;;13.05;64.21;100523.72;10387315;28;20049;-66
2021/09/03 00:45:56;;;;;;;13.65;8.40;;;;;;;12.94;64.00;100522.53;10387383;28;21041;-66
2021/09/03 00:50:58;;;;;;;10.90;8.15;;;;;;;12.80;64.17;100519.91;10386629;28;20045;-66
2021/09/03 00:56:00;;;;;;;12.85;8.57;;;;;;;12.59;63.79;100523.81;10386973;28;20145;-66
2021/09/03 01:01:02;;;;;;;10.77;8.15;;;;;;;12.47;64.53;100521.06;10386508;28;20050;-66
2021/09/03 01:06:05;;;;;;;12.65;8.73;;;;;;;12.18;64.61;100525.31;10386028;28;20045;-66
2021/09/03 01:11:07;;;;;;;10.95;7.70;;;;;;;12.20;65.23;100525.22;10385444;28;20168;-66
2021/09/03 01:16:09;;;;;;;15.95;9.18;;;;;;;12.27;65.26;100519.56;10386328;28;20145;-66
2021/09/03 01:21:10;;;;;;;15.80;8.52;;;;;;;12.30;65.13;100518.56;10385417;28;20445;-66
2021/09/03 01:26:12;;;;;;;28.25;9.27;;;;;;;12.24;65.40;100514.47;10383887;28;20152;-66
2021/09/03 01:31:15;;;;;;;151.45;12.00;;;;;;;12.23;65.49;100509.34;10385042;28;20057;-66
2021/09/03 01:36:17;;;;;;;108.68;10.57;;;;;;;12.19;65.53;100511.28;10385546;28;20056;-66
2021/09/03 01:41:19;;;;;;;79.97;10.18;;;;;;;12.24;65.53;100508.38;10384899;28;20059;-65
2021/09/03 01:46:21;;;;;;;80.10;10.68;;;;;;;12.25;65.56;100505.69;10384981;28;20088;-66
2021/09/03 01:51:23;;;;;;;12.15;7.68;;;;;;;12.31;65.32;100501.91;10385139;28;20130;-66
2021/09/03 01:56:24;;;;;;;236.13;13.57;;;;;;;12.30;65.27;100497.56;10384058;28;20053;-66
2021/09/03 02:01:26;;;;;;;419.65;16.70;;;;;;;12.24;65.44;100498.75;10385943;28;20508;-66
2021/09/03 02:06:28;;;;;;;221.73;11.80;;;;;;;12.16;65.66;100493.09;10392097;28;20140;-66
2021/09/03 02:11:31;;;;;;;290.23;13.88;;;;;;;12.10;65.80;100496.06;10391822;28;20088;-66
2021/09/03 02:16:33;;;;;;;224.77;13.00;;;;;;;12.08;65.57;100492.69;10391619;28;20053;-65
2021/09/03 02:21:35;;;;;;;258.92;12.48;;;;;;;12.03;65.66;100497.34;10391992;28;20053;-65
2021/09/03 02:26:36;;;;;;;73.53;8.38;;;;;;;11.98;65.79;100494.16;10391572;28;20132;-66
2021/09/03 02:31:38;;;;;;;296.42;16.70;;;;;;;11.87;65.22;100497.38;10391494;28;20147;-66
2021/09/03 02:36:40;;;;;;;261.92;13.15;;;;;;;11.62;65.49;100494.41;10391566;28;20469;-68
2021/09/03 02:41:42;;;;;;;214.70;11.50;;;;;;;11.64;66.16;100497.78;10390094;28;20549;-66
2021/09/03 02:46:44;;;;;;;302.90;13.98;;;;;;;11.66;65.90;100500.34;10391257;28;20045;-66
2021/09/03 02:51:46;;;;;;;258.83;9.88;;;;;;;11.39;66.08;100486.13;10391059;28;20045;-66
2021/09/03 02:56:47;;;;;;;274.38;12.48;;;;;;;11.32;66.25;100489.06;10389652;28;20148;-66
2021/09/03 03:01:49;;;;;;;413.45;13.43;;;;;;;11.23;66.34;100486.13;10398208;28;20045;-66
2021/09/03 03:06:51;;;;;;;29.20;8.15;;;;;;;11.30;66.33;100487.47;10393426;28;20096;-66
2021/09/03 03:11:53;;;;;;;71.38;7.97;;;;;;;11.41;66.55;100484.28;10391958;28;20700;-66
2021/09/03 03:16:56;;;;;;;162.70;10.52;;;;;;;11.49;66.24;100480.31;10391510;28;20053;-66
2021/09/03 03:21:58;;;;;;;85.07;7.85;;;;;;;11.52;66.08;100480.13;10391520;28;20055;-66
2021/09/03 03:27:00;;;;;;;239.18;11.07;;;;;;;11.46;65.99;100479.66;10390531;28;20141;-66
2021/09/03 03:32:02;;;;;;;345.08;14.68;;;;;;;11.38;66.05;100469.56;10389886;28;20495;-65
2021/09/03 03:37:04;;;;;;;386.33;13.70;;;;;;;11.21;66.22;100472.25;10391396;28;20148;-66
2021/09/03 03:42:05;;;;;;;123.45;8.50;;;;;;;11.23;66.42;100467.78;10390680;28;20156;-66
2021/09/03 03:47:07;;;;;;;235.95;12.07;;;;;;;11.32;66.43;100476.94;10390499;28;20541;-66
2021/09/03 03:52:09;;;;;;;300.45;11.48;;;;;;;11.25;66.24;100474.63;10390632;28;20204;-66
2021/09/03 03:57:11;;;;;;;287.85;12.10;;;;;;;11.18;66.51;100460.19;10389314;28;20049;-66
2021/09/03 04:02:12;;;;;;;47.55;6.80;;;;;;;11.22;66.57;100464.31;10389500;28;20153;-66
2021/09/03 04:07:14;;;;;;;56.55;6.47;;;;;;;11.17;66.34;100461.09;10389044;28;20049;-66
2021/09/03 04:12:16;;;;;;;140.75;8.23;;;;;;;11.16;66.36;100466.41;10388310;28;20119;-66
2021/09/03 04:17:18;;;;;;;56.63;6.72;;;;;;;11.26;66.58;100460.59;10387255;28;20046;-66
2021/09/03 04:22:19;;;;;;;93.05;6.88;;;;;;;11.38;66.41;100463.50;10389115;28;20164;-66
2021/09/03 04:27:21;;;;;;;81.20;7.63;;;;;;;11.41;66.35;100456.31;10388825;28;20184;-66
2021/09/03 04:32:23;;;;;;;70.65;6.88;;;;;;;11.52;66.07;100458.34;10387131;28;20073;-66
2021/09/03 04:37:24;;;;;;;38.35;6.90;;;;;;;11.53;66.18;100462.66;10387996;28;20474;-66
2021/09/03 04:42:26;;;;;;;76.63;7.80;;;;;;;11.47;65.94;100460.38;10387768;28;20958;-66
2021/09/03 04:47:28;;;;;;;141.00;9.68;;;;;;;11.45;66.06;100460.44;10388104;28;20060;-66
2021/09/03 04:52:30;;;;;;;173.65;8.93;;;;;;;11.49;66.14;100455.88;10388144;28;20553;-66
2021/09/03 04:57:32;;;;;;;97.00;7.95;;;;;;;11.51;66.00;100459.25;10387144;28;20366;-66
2021/09/03 05:02:34;;;;;;;200.23;8.95;;;;;;;11.47;66.15;100462.97;10386463;28;20064;-66
2021/09/03 05:07:36;;;;;;;324.15;11.95;;;;;;;11.50;66.15;100463.66;10386799;28;20152;-66
2021/09/03 05:12:39;;;;;;;195.52;7.68;;;;;;;11.41;66.15;100468.56;10385915;28;20172;-66
2021/09/03 05:17:43;;;;;;;118.22;6.72;;;;;;;11.44;66.43;100466.59;10386440;28;20172;-66
2021/09/03 05:22:45;;;;;;;44.75;5.30;;;;;;;11.43;66.44;100464.94;10386664;28;20056;-66
2021/09/03 05:27:46;;;;;;;209.60;8.38;;;;;;;11.36;66.58;100468.81;10386605;28;21035;-66
2021/09/03 05:32:48;;;;;;;165.88;6.32;;;;;;;11.46;66.41;100471.78;10386129;28;20045;-66
2021/09/03 05:37:50;;;;;;;222.93;7.30;;;;;;;11.50;66.54;100478.53;10385548;28;20136;-66
2021/09/03 05:42:52;;;;;;;135.77;5.68;;;;;;;11.64;66.29;100476.81;10386373;28;20167;-66
2021/09/03 05:47:54;;;;;;;467.98;11.38;;;;;;;11.96;65.74;100475.03;10384555;28;20050;-66
2021/09/03 05:52:59;;;;;;;313.98;8.52;;;;;;;11.95;65.29;100479.44;10385674;28;20056;-66
2021/09/03 05:58:00;;;;;;;463.02;11.70;;;;;;;12.11;64.88;100472.38;10384907;28;20445;-67
2021/09/03 06:03:02;;;;;;;516.40;13.00;;;;;;;12.14;64.68;100471.38;10384261;28;20049;-66
2021/09/03 06:08:04;;;;;;;95.07;5.03;;;;;;;12.27;64.71;100469.75;10384359;28;20049;-66
2021/09/03 06:13:06;;;;;;;61.05;4.82;;;;;;;12.48;64.34;100465.03;10384674;28;20569;-66
2021/09/03 06:18:08;;;;;;;64.72;4.47;;;;;;;12.84;63.78;100468.09;10385009;28;20099;-66
2021/09/03 06:23:10;;;;;;;144.38;5.28;;;;;;;12.98;63.47;100462.00;10385237;28;20065;-66
2021/09/03 06:28:11;;;;;;;4.80;3.30;;;;;;;13.44;62.89;100455.59;10388602;28;20535;-66
2021/09/03 06:33:14;;;;;;;18.35;4.25;;;;;;;13.96;62.06;100446.06;10391541;28;20502;-67
2021/09/03 06:38:16;;;;;;;13.68;4.90;;;;;;;14.00;61.71;100449.31;10392803;28;20466;-67
2021/09/03 06:43:18;;;;;;;7.68;4.22;;;;;;;14.05;61.79;100445.44;10393309;28;20053;-66
2021/09/03 06:48:22;;;;;;;12.55;4.25;;;;;;;14.18;61.58;100454.22;10391774;28;20704;-66
2021/09/03 06:53:24;;;;;;;10.60;4.10;;;;;;;14.08;61.93;100450.50;10392211;28;20107;-66
2021/09/03 06:58:26;;;;;;;4.90;3.80;;;;;;;13.96;62.34;100451.31;10392657;28;20549;-66
2021/09/03 07:03:27;;;;;;;6.20;4.88;;;;;;;13.95;62.45;100452.25;10391714;28;20057;-66
2021/09/03 07:08:30;;;;;;;6.72;4.60;;;;;;;13.96;62.57;100450.47;10388026;28;20305;-66
2021/09/03 07:13:31;;;;;;;6.05;4.72;;;;;;;14.01;63.02;100451.84;10387184;28;20176;-66
2021/09/03 07:18:33;;;;;;;8.57;5.15;;;;;;;14.16;63.00;100445.59;10390574;28;20080;-66
2021/09/03 07:23:36;;;;;;;8.77;6.00;;;;;;;14.34;63.04;100451.41;10390729;28;20057;-66
2021/09/03 07:28:38;;;;;;;12.50;7.43;;;;;;;14.48;62.99;100441.63;10389065;28;20054;-67
2021/09/03 07:33:39;;;;;;;11.82;7.22;;;;;;;14.68;62.93;100445.56;10390069;28;20240;-66
2021/09/03 07:38:42;;;;;;;8.60;6.00;;;;;;;15.01;62.35;100443.25;10387659;28;20049;-67
2021/09/03 07:43:44;;;;;;;15.15;7.50;;;;;;;15.91;60.96;100440.25;10389019;28;20053;-67
2021/09/03 07:48:46;;;;;;;16.52;7.95;;;;;;;16.69;59.06;100436.09;10388133;28;20452;-67
2021/09/03 07:53:50;;;;;;;13.07;8.15;;;;;;;17.48;57.39;100434.19;10388222;28;20440;-67
2021/09/03 07:58:51;;;;;;;16.75;8.48;;;;;;;18.01;56.38;100435.09;10388214;28;20050;-67
2021/09/03 08:03:53;;;;;;;10.98;7.57;;;;;;;18.44;54.78;100429.75;10387091;28;20117;-70
2021/09/03 08:08:55;;;;;;;18.35;8.23;;;;;;;18.39;54.32;100431.94;10387492;28;20051;-70
2021/09/03 08:13:57;;;;;;;11.65;7.18;;;;;;;19.07;53.86;100426.91;10386630;28;20049;-70
2021/09/03 08:18:59;;;;;;;14.13;7.72;;;;;;;19.35;52.51;100427.97;10382928;28;20651;-69
2021/09/03 08:24:00;;;;;;;13.80;7.60;;;;;;;19.63;52.17;100427.19;10386304;28;20057;-70
2021/09/03 08:29:02;;;;;;;12.50;6.53;;;;;;;19.65;51.61;100425.25;10388207;28;20478;-69
2021/09/03 08:34:05;;;;;;;11.88;7.00;;;;;;;20.15;50.57;100418.03;10384845;28;20056;-71
2021/09/03 08:39:07;;;;;;;9.85;6.95;;;;;;;20.62;49.44;100409.16;10387480;28;20045;-69
2021/09/03 08:44:09;;;;;;;12.50;6.75;;;;;;;20.73;49.18;100413.47;10386528;28;20158;-70
2021/09/03 08:49:11;;;;;;;14.45;7.32;;;;;;;21.11;48.21;100408.00;10387381;28;20059;-70
2021/09/03 08:54:13;;;;;;;12.55;7.03;;;;;;;21.56;47.82;100410.72;10380293;28;20045;-68
2021/09/03 08:59:15;;;;;;;15.27;7.50;;;;;;;21.51;47.20;100402.38;10383537;28;20453;-71
2021/09/03 09:04:17;;;;;;;19.63;6.88;;;;;;;21.37;47.32;100397.56;10383878;28;20051;-72
2021/09/03 09:09:32;;;;;;;12.52;6.40;;;;;;;21.35;46.23;100402.19;10384430;28;20116;-71
2021/09/03 09:15:06;;;;;;;8.95;6.28;;;;;;;21.55;45.71;100401.06;10385071;28;20053;-72
2021/09/03 09:20:12;;;;;;;13.10;6.55;;;;;;;21.53;45.81;100403.06;10383344;28;20387;-71
2021/09/03 09:25:34;;;;;;;10.68;6.47;;;;;;;21.74;45.75;100387.63;10386245;28;20394;-71
2021/09/03 09:30:41;;;;;;;13.85;6.57;;;;;;;21.86;46.15;100379.25;10385116;28;20128;-72
2021/09/03 09:35:49;;;;;;;15.77;7.28;;;;;;;21.75;46.46;100373.31;10384366;28;20049;-71
2021/09/03 09:40:58;;;;;;;12.93;7.13;;;;;;;21.75;46.17;100373.31;10382352;28;20486;-74
2021/09/03 09:46:27;;;;;;;13.45;6.95;;;;;;;22.03;45.20;100372.28;10382271;28;20064;-72
2021/09/03 09:51:49;;;;;;;12.35;6.88;;;;;;;21.81;46.25;100360.25;10382773;28;20551;-71
2021/09/03 09:57:03;;;;;;;16.55;7.10;;;;;;;22.36;44.89;100352.88;10384166;28;20140;-68
2021/09/03 10:02:05;;;;;;;11.13;6.15;;;;;;;22.48;45.63;100345.44;10374575;28;20506;-70
2021/09/03 10:07:08;;;;;;;10.57;6.53;;;;;;;22.56;45.10;100341.00;10383808;28;20113;-70
2021/09/03 10:12:11;;;;;;;9.50;6.00;;;;;;;22.73;44.94;100341.97;10383756;28;20461;-68
2021/09/03 10:17:14;;;;;;;8.70;5.78;;;;;;;22.95;44.83;100335.19;10372143;28;20069;-72
2021/09/03 10:22:17;;;;;;;9.07;5.35;;;;;;;23.07;43.92;100323.25;10384390;28;20140;-67
2021/09/03 10:27:19;;;;;;;7.85;5.07;;;;;;;23.12;43.13;100327.13;10383633;28;20140;-68
2021/09/03 10:32:22;;;;;;;8.20;5.57;;;;;;;23.44;42.64;100315.69;10383538;28;20490;-67
2021/09/03 10:37:30;;;;;;;8.45;4.93;;;;;;;23.39;42.45;100310.81;10376684;28;20175;-67
2021/09/03 10:42:43;;;;;;;9.05;4.63;;;;;;;23.55;41.74;100312.72;10383123;28;20462;-74
2021/09/03 10:47:57;;;;;;;6.20;4.50;;;;;;;23.19;42.36;100297.91;10383064;28;20176;-68
2021/09/03 10:53:13;;;;;;;7.72;4.95;;;;;;;23.16;41.86;100288.44;10383627;28;20124;-72
2021/09/03 10:58:30;;;;;;;6.63;4.47;;;;;;;23.28;42.36;100283.59;10383838;28;20136;-71
2021/09/03 11:04:01;;;;;;;7.22;4.35;;;;;;;23.33;41.80;100281.28;10380948;28;20510;-71
2021/09/03 11:09:15;;;;;;;7.70;4.25;;;;;;;23.45;40.81;100264.00;10379563;28;20140;-70
2021/09/03 11:14:28;;;;;;;6.18;4.22;;;;;;;23.44;40.88;100259.63;10369661;28;20528;-70
2021/09/03 11:19:33;;;;;;;6.53;4.25;;;;;;;23.46;41.20;100249.63;10388917;28;20148;-70
2021/09/03 11:24:39;;;;;;;6.15;4.03;;;;;;;23.45;41.71;100247.97;10389991;28;20059;-71
2021/09/03 11:29:53;;;;;;;5.80;3.72;;;;;;;23.67;41.07;100241.97;10389456;28;20140;-70
2021/09/03 11:35:02;;;;;;;7.25;3.40;;;;;;;23.63;39.22;100243.28;10390143;28;20149;-70
2021/09/03 11:40:07;;;;;;;6.57;3.30;;;;;;;23.78;40.45;100243.47;10387820;28;20480;-70
2021/09/03 11:45:16;;;;;;;5.05;3.13;;;;;;;23.87;40.30;100227.25;10388803;28;20057;-70
2021/09/03 11:50:26;;;;;;;5.70;3.40;;;;;;;24.08;39.83;100229.41;10388662;28;20236;-70
2021/09/03 11:55:36;;;;;;;5.20;3.25;;;;;;;24.09;38.23;100213.19;10388517;28;20880;-70
2021/09/03 12:00:42;;;;;;;5.10;3.10;;;;;;;24.17;36.33;100212.31;10388741;28;20596;-70
2021/09/03 12:05:53;;;;;;;4.18;2.60;;;;;;;24.08;34.39;100210.69;10389030;28;20069;-70
2021/09/03 12:11:08;;;;;;;4.07;2.90;;;;;;;23.82;33.80;100210.88;10387427;28;20084;-70
2021/09/03 12:16:13;;;;;;;4.53;2.78;;;;;;;24.18;34.90;100198.78;10384502;28;20089;-70
2021/09/03 12:21:19;;;;;;;5.05;3.25;;;;;;;24.25;33.59;100193.59;10385863;28;20143;-70
2021/09/03 12:26:24;;;;;;;4.43;2.70;;;;;;;24.34;33.69;100197.91;10387016;28;20053;-70
2021/09/03 12:31:31;;;;;;;4.60;2.85;;;;;;;24.55;31.78;100189.28;10388038;28;20082;-70
2021/09/03 12:36:36;;;;;;;4.55;2.90;;;;;;;24.74;32.53;100179.00;10385140;28;20453;-71
2021/09/03 12:41:43;;;;;;;5.60;2.65;;;;;;;24.91;31.59;100163.69;10358193;28;20113;-71
2021/09/03 12:46:47;;;;;;;4.20;2.67;;;;;;;24.95;31.20;100171.19;10386334;28;20057;-70
2021/09/03 12:51:51;;;;;;;4.93;3.08;;;;;;;25.06;32.20;100161.91;10387650;28;20088;-70
2021/09/03 12:56:53;;;;;;;7.30;3.00;;;;;;;25.07;32.16;100163.56;10386579;28;20152;-70
2021/09/03 13:01:55;;;;;;;5.25;3.00;;;;;;;25.29;32.67;100159.19;10386835;28;20055;-70
2021/09/03 13:06:57;;;;;;;5.95;3.15;;;;;;;25.30;32.01;100137.63;10386002;28;20041;-69
2021/09/03 13:12:01;;;;;;;5.05;3.10;;;;;;;25.25;31.66;100140.00;10385165;28;20065;-70
2021/09/03 13:17:03;;;;;;;4.70;3.28;;;;;;;25.49;32.17;100134.44;10384065;28;20061;-70
2021/09/03 13:22:18;;;;;;;5.18;3.38;;;;;;;25.52;31.51;100128.72;10382288;28;20052;-70
2021/09/03 13:27:20;;;;;;;5.03;3.20;;;;;;;25.64;32.02;100129.94;10384616;28;20136;-69
2021/09/03 13:32:21;;;;;;;5.00;3.13;;;;;;;25.52;31.94;100123.38;10385094;28;20128;-69
2021/09/03 13:37:23;;;;;;;6.50;3.40;;;;;;;25.39;31.27;100103.56;10384979;28;20129;-69
2021/09/03 13:42:25;;;;;;;5.25;3.17;;;;;;;25.57;30.83;100110.25;10383980;28;21010;-70
2021/09/03 13:47:27;;;;;;;5.13;3.47;;;;;;;25.72;30.32;100110.25;10382856;28;20422;-70
2021/09/03 13:52:29;;;;;;;5.75;3.17;;;;;;;25.68;30.15;100099.09;10382590;28;21021;-69
2021/09/03 13:57:32;;;;;;;5.25;3.30;;;;;;;25.65;30.13;100098.63;10385005;28;20056;-70
2021/09/03 14:02:34;;;;;;;5.68;3.47;;;;;;;25.64;30.65;100087.09;10383860;28;20056;-66
2021/09/03 14:07:36;;;;;;;6.82;3.50;;;;;;;25.70;31.00;100081.00;10377193;28;20533;-61
2021/09/03 14:12:38;;;;;;;8.77;3.30;;;;;;;25.81;30.97;100077.03;10384093;28;20330;-61
2021/09/03 14:22:56;;;;;;;7.05;3.15;;;;;;;25.62;30.63;100072.22;2949785;26;20058;-80
2021/09/03 14:27:59;;;;;;;5.53;3.10;;;;;;;25.80;30.81;100068.13;10390152;28;20101;-80
2021/09/03 14:33:01;;;;;;;4.95;3.03;;;;;;;25.87;31.12;100058.31;10389058;28;20116;-80
2021/09/03 14:38:11;;;;;;;5.85;3.45;;;;;;;25.73;29.83;100048.44;10406152;28;20049;-80
2021/09/03 14:43:18;;;;;;;6.47;3.20;;;;;;;25.78;29.71;100051.41;10390551;28;20064;-80
2021/09/03 14:48:21;;;;;;;6.22;3.50;;;;;;;25.88;30.06;100053.81;10393652;28;20057;-80
2021/09/03 14:53:24;;;;;;;5.05;3.20;;;;;;;25.66;30.03;100041.34;10400436;28;20088;-80
2021/09/03 14:58:26;;;;;;;5.80;3.35;;;;;;;25.57;29.89;100051.31;10398353;28;20422;-80
2021/09/03 15:03:29;;;;;;;5.30;3.10;;;;;;;25.72;30.29;100041.44;10398852;28;20119;-80
2021/09/03 15:08:38;;;;;;;4.30;3.10;;;;;;;25.82;29.08;100033.94;10398368;28;20053;-80
2021/09/03 15:13:43;;;;;;;5.00;3.10;;;;;;;25.63;29.41;100026.47;10398149;28;20100;-80
2021/09/03 15:18:46;;;;;;;4.57;3.08;;;;;;;25.75;29.38;100030.34;10397956;28;20387;-80
2021/09/03 15:23:48;;;;;;;5.57;3.25;;;;;;;25.75;30.13;100021.50;10396246;28;20154;-80
2021/09/03 15:28:50;;;;;;;5.32;3.33;;;;;;;25.72;30.24;100013.81;10396283;28;20132;-80
2021/09/03 15:33:58;;;;;;;6.07;3.33;;;;;;;25.78;30.36;100015.75;10397450;28;20069;-79
2021/09/03 15:39:02;;;;;;;6.85;3.20;;;;;;;26.06;31.27;100007.88;10397995;28;20878;-80
2021/09/03 15:44:04;;;;;;;5.05;3.30;;;;;;;25.94;30.23;100010.19;10401263;28;20141;-80
2021/09/03 15:49:06;;;;;;;7.10;3.40;;;;;;;25.82;30.79;100006.31;10417547;28;20061;-81
2021/09/03 15:54:08;;;;;;;4.97;3.45;;;;;;;25.76;30.31;99999.88;10401286;28;20049;-80
2021/09/03 15:59:10;;;;;;;7.80;3.75;;;;;;;25.81;30.50;99994.75;10395541;28;20101;-79
2021/09/03 16:04:12;;;;;;;6.20;3.20;;;;;;;25.79;32.18;99996.00;10393704;28;20146;-80
2021/09/03 16:09:13;;;;;;;7.70;3.60;;;;;;;25.83;31.21;99989.25;10393686;28;20523;-80
2021/09/03 16:14:18;;;;;;;4.47;3.25;;;;;;;25.57;31.82;99992.41;10394433;28;20144;-79
2021/09/03 16:19:22;;;;;;;6.13;3.30;;;;;;;25.43;32.44;99990.56;10394201;28;20466;-81
2021/09/03 16:24:24;;;;;;;9.38;3.60;;;;;;;25.42;32.80;99996.97;10397892;28;20160;-80
2021/09/03 16:29:26;;;;;;;6.15;3.30;;;;;;;25.27;32.51;99992.56;10397845;28;20080;-81
2021/09/03 16:34:27;;;;;;;5.05;3.08;;;;;;;25.00;32.50;99980.63;10398935;28;20170;-81
2021/09/03 16:39:29;;;;;;;5.95;3.38;;;;;;;25.25;32.57;99979.38;10397016;28;20561;-80
2021/09/03 16:44:33;;;;;;;5.63;3.20;;;;;;;25.65;32.14;99972.75;10396541;28;20146;-81
2021/09/03 16:49:35;;;;;;;4.88;3.53;;;;;;;25.97;32.20;99966.13;10397495;28;20061;-80
2021/09/03 16:54:36;;;;;;;5.55;3.38;;;;;;;26.18;31.77;99968.84;10392619;28;20045;-79
2021/09/03 16:59:40;;;;;;;7.15;3.60;;;;;;;25.71;31.96;99970.13;10390112;28;20148;-79
2021/09/03 17:04:42;;;;;;;6.38;3.05;;;;;;;25.23;32.92;99970.69;10391091;28;20049;-79
2021/09/03 17:09:44;;;;;;;5.50;3.20;;;;;;;24.83;33.75;99971.97;10389508;28;20115;-79
2021/09/03 17:14:45;;;;;;;7.10;3.10;;;;;;;24.58;35.05;99961.63;10391822;28;20077;-79
2021/09/03 17:19:47;;;;;;;5.75;2.83;;;;;;;24.39;35.46;99970.16;10394021;28;20559;-79
2021/09/03 17:24:49;;;;;;;5.65;2.90;;;;;;;24.14;35.78;99964.16;10393990;28;20169;-79
2021/09/03 17:29:52;;;;;;;7.28;3.42;;;;;;;23.95;36.35;99972.59;10394202;28;20140;-79
2021/09/03 17:34:54;;;;;;;7.50;3.50;;;;;;;23.65;36.46;99962.75;10393681;28;20597;-79
2021/09/03 17:39:56;;;;;;;6.10;3.38;;;;;;;23.38;37.97;99964.00;10391924;28;20581;-79
2021/09/03 17:44:58;;;;;;;6.10;3.50;;;;;;;23.04;39.34;99971.44;10394090;28;20053;-79
2021/09/03 17:49:59;;;;;;;9.15;4.40;;;;;;;22.78;40.50;99974.28;10391983;28;20092;-79
2021/09/03 17:55:02;;;;;;;8.55;4.10;;;;;;;22.48;41.23;99981.13;10391958;28;20092;-81
2021/09/03 18:00:05;;;;;;;5.68;4.30;;;;;;;21.98;42.88;99980.38;10389310;28;20060;-78
2021/09/03 18:05:08;;;;;;;7.63;4.43;;;;;;;21.70;43.62;99989.63;10389616;28;20103;-79
2021/09/03 18:10:10;;;;;;;6.22;4.10;;;;;;;21.45;44.44;99990.50;10392828;28;20071;-80
2021/09/03 18:15:12;;;;;;;9.93;4.75;;;;;;;21.17;44.92;99996.97;10398587;28;20503;-80
2021/09/03 18:20:14;;;;;;;16.50;4.20;;;;;;;20.77;46.20;99995.72;10407482;28;20096;-79
2021/09/03 18:25:16;;;;;;;11.40;4.63;;;;;;;20.53;47.20;99998.16;10411683;28;20115;-78
2021/09/03 18:30:18;;;;;;;8.40;4.45;;;;;;;20.36;47.59;99998.97;10393542;28;20064;-80
2021/09/03 18:35:19;;;;;;;6.78;4.78;;;;;;;20.15;48.26;100014.41;10394423;28;21005;-80
2021/09/03 18:40:21;;;;;;;7.95;4.85;;;;;;;19.99;48.73;100014.22;10395498;28;20144;-80
2021/09/03 18:45:23;;;;;;;9.00;4.70;;;;;;;19.82;49.51;100020.31;10396060;28;20084;-80
2021/09/03 18:50:26;;;;;;;7.28;4.82;;;;;;;19.68;49.82;100024.28;10394418;28;20064;-80
2021/09/03 18:55:28;;;;;;;6.57;4.80;;;;;;;19.38;50.93;100028.03;10394918;28;20947;-80
2021/09/03 19:00:30;;;;;;;9.60;4.72;;;;;;;19.11;51.58;100030.66;10395136;28;20065;-80
2021/09/03 19:05:32;;;;;;;7.57;4.65;;;;;;;18.93;52.34;100027.00;10394920;28;20056;-80
2021/09/03 19:10:34;;;;;;;8.32;5.05;;;;;;;18.91;52.32;100036.09;10409451;28;20065;-80
2021/09/03 19:15:36;;;;;;;10.55;4.85;;;;;;;18.71;53.03;100037.91;10394191;28;20053;-80
2021/09/03 19:20:39;;;;;;;8.23;5.28;;;;;;;18.54;53.57;100049.22;10392929;28;20057;-80
2021/09/03 19:25:43;;;;;;;7.45;5.00;;;;;;;18.33;54.32;100049.34;10394948;28;20069;-79
2021/09/03 19:30:46;;;;;;;7.72;5.40;;;;;;;18.21;54.21;100054.91;10394557;28;20140;-80
2021/09/03 19:35:49;;;;;;;7.55;4.75;;;;;;;18.05;55.10;100063.34;10396132;28;20112;-80
2021/09/03 19:40:52;;;;;;;7.20;5.10;;;;;;;17.92;55.42;100056.59;10402477;28;20085;-80
2021/09/03 19:45:54;;;;;;;7.93;5.32;;;;;;;17.87;55.35;100064.13;10400652;28;20081;-80
2021/09/03 19:50:56;;;;;;;8.75;5.50;;;;;;;17.72;55.81;100056.56;10402231;28;20127;-80
2021/09/03 19:55:58;;;;;;;8.82;5.57;;;;;;;17.60;55.91;100060.28;10400509;28;20054;-80
2021/09/03 20:01:00;;;;;;;8.45;5.28;;;;;;;17.59;55.98;100066.50;10400676;28;20489;-80
2021/09/03 20:06:03;;;;;;;10.35;5.43;;;;;;;17.57;56.38;100067.59;10399178;28;20053;-80
2021/09/03 20:11:06;;;;;;;11.15;6.00;;;;;;;17.52;56.27;100065.38;10381828;28;20821;-80
2021/09/03 20:16:08;;;;;;;9.00;5.60;;;;;;;17.14;57.16;100073.06;10397974;28;20081;-80
2021/09/03 20:21:09;;;;;;;6.95;5.40;;;;;;;16.94;57.78;100073.91;10399933;28;20945;-80
2021/09/03 20:26:12;;;;;;;10.93;5.63;;;;;;;16.96;57.79;100071.97;10398461;28;20061;-80
2021/09/03 20:31:13;;;;;;;10.90;5.75;;;;;;;16.86;57.95;100073.69;10397780;28;20137;-80
2021/09/03 20:36:16;;;;;;;8.23;5.85;;;;;;;16.76;58.07;100068.34;10396414;28;20461;-80
2021/09/03 20:41:19;;;;;;;8.90;5.68;;;;;;;16.69;58.45;100066.34;10399025;28;20057;-80
2021/09/03 20:46:24;;;;;;;8.65;5.78;;;;;;;16.59;58.45;100062.81;10401871;28;20057;-80
2021/09/03 20:51:27;;;;;;;9.18;6.95;;;;;;;16.45;58.74;100058.63;10410108;28;20457;-80
2021/09/03 20:56:30;;;;;;;10.38;6.15;;;;;;;16.43;58.63;100070.25;10434765;28;20045;-80
2021/09/03 21:01:31;;;;;;;11.40;5.95;;;;;;;16.35;59.29;100068.25;10399132;28;20057;-80
2021/09/03 21:06:34;;;;;;;22.92;13.85;;;;;;;16.28;59.36;100076.78;10399352;28;20046;-80
2021/09/03 21:11:35;;;;;;;9.27;5.97;;;;;;;16.29;59.40;100075.81;10398144;28;20111;-80
2021/09/03 21:16:37;;;;;;;13.18;6.00;;;;;;;16.20;59.72;100083.50;10396635;28;20056;-80
2021/09/03 21:21:39;;;;;;;10.45;6.07;;;;;;;16.08;59.64;100083.69;10396423;28;20053;-80
2021/09/03 21:26:42;;;;;;;10.95;6.22;;;;;;;16.00;59.76;100080.78;10395994;28;20183;-80
2021/09/03 21:31:44;;;;;;;11.65;5.90;;;;;;;15.89;59.87;100086.94;10394284;28;20053;-80
2021/09/03 21:36:46;;;;;;;12.43;6.40;;;;;;;15.75;60.39;100086.34;10396424;28;20892;-80
2021/09/03 21:41:47;;;;;;;10.93;6.00;;;;;;;15.66;60.59;100089.69;10393953;28;20109;-80
2021/09/03 21:46:49;;;;;;;12.35;6.30;;;;;;;15.58;60.54;100079.75;10395884;28;20277;-81
2021/09/03 21:51:51;;;;;;;9.88;6.03;;;;;;;15.45;60.73;100086.88;10394729;28;20081;-81
2021/09/03 21:56:53;;;;;;;10.63;6.00;;;;;;;15.39;61.13;100082.94;10393645;28;20085;-80
2021/09/03 22:01:54;;;;;;;10.88;6.03;;;;;;;15.28;61.23;100082.09;10394582;28;20084;-81
2021/09/03 22:06:57;;;;;;;10.00;6.18;;;;;;;15.21;61.20;100086.97;10395741;28;20134;-81
2021/09/03 22:11:58;;;;;;;12.85;6.78;;;;;;;15.10;61.57;100081.69;10393742;28;20176;-80
2021/09/03 22:17:01;;;;;;;12.25;8.18;;;;;;;14.64;61.67;100091.34;10393759;28;20128;-80
2021/09/03 22:22:02;;;;;;;11.65;7.28;;;;;;;14.36;62.61;100092.50;10394825;28;20081;-80
2021/09/03 22:27:05;;;;;;;14.70;6.75;;;;;;;14.46;62.82;100096.16;10393814;28;20120;-80
2021/09/03 22:32:07;;;;;;;9.43;6.35;;;;;;;14.50;62.92;100088.91;10393324;28;20080;-80
2021/09/03 22:37:08;;;;;;;9.82;6.43;;;;;;;14.62;62.71;100092.41;10393686;28;20053;-80
2021/09/03 22:42:10;;;;;;;8.90;6.30;;;;;;;14.63;62.63;100099.38;10390181;28;20458;-79
2021/09/03 22:47:12;;;;;;;11.10;6.70;;;;;;;14.61;62.52;100096.00;10394444;28;20060;-81
2021/09/03 22:52:14;;;;;;;12.45;7.15;;;;;;;14.61;62.44;100098.66;10392925;28;20111;-80
2021/09/03 22:57:16;;;;;;;9.38;6.45;;;;;;;14.60;62.46;100103.06;10394385;28;20141;-80
2021/09/03 23:02:18;;;;;;;9.68;6.95;;;;;;;14.55;62.58;100098.13;10394204;28;20101;-80
2021/09/03 23:07:20;;;;;;;12.73;6.85;;;;;;;14.42;62.89;100097.31;10393441;28;20057;-80